createdAt,value
2022-11-17T00:00:42.270Z,1.13
2022-11-17T00:03:15.939Z,1.12
2022-11-17T00:05:44.860Z,1.10
2022-11-17T00:08:12.565Z,1.07
2022-11-17T00:10:40.052Z,1.08
2022-11-17T00:13:27.504Z,1.09
2022-11-17T00:15:55.095Z,1.06
2022-11-17T00:18:43.120Z,1.03
2022-11-17T00:21:19.412Z,1.00
2022-11-17T00:23:50.865Z,1.01
2022-11-17T00:26:22.126Z,1.00
2022-11-17T00:28:58.290Z,1.02
2022-11-17T00:31:46.370Z,1.00
2022-11-17T00:34:22.476Z,0.98
2022-11-17T00:36:53.609Z,0.91
2022-11-17T00:39:22.632Z,0.91
2022-11-17T00:41:50.593Z,0.87
2022-11-17T00:44:18.351Z,0.78
2022-11-17T00:46:45.869Z,0.74
2022-11-17T00:49:16.012Z,0.71
2022-11-17T00:51:43.456Z,0.64
2022-11-17T00:54:13.455Z,0.61
2022-11-17T00:56:41.425Z,0.56
2022-11-17T00:59:08.934Z,0.54
2022-11-17T01:01:37.520Z,0.53
2022-11-17T01:04:05.508Z,0.54
2022-11-17T01:06:42.156Z,0.49
2022-11-17T01:09:16.074Z,0.50
2022-11-17T01:11:44.404Z,0.54
2022-11-17T01:14:15.939Z,0.46
2022-11-17T01:16:43.998Z,0.55
2022-11-17T01:19:14.322Z,0.55
2022-11-17T01:21:42.083Z,0.62
2022-11-17T01:24:11.646Z,0.68
2022-11-17T01:26:40.458Z,0.70
2022-11-17T01:29:08.979Z,0.74
2022-11-17T01:31:39.331Z,0.77
2022-11-17T01:34:07.885Z,0.80
2022-11-17T01:36:57.093Z,0.82
2022-11-17T01:39:25.585Z,0.81
2022-11-17T01:41:53.560Z,0.79
2022-11-17T01:44:53.799Z,0.78
2022-11-17T01:47:55.137Z,0.80
2022-11-17T01:50:34.478Z,0.83
2022-11-17T01:53:05.996Z,0.79
2022-11-17T01:55:41.746Z,0.80
2022-11-17T01:58:17.754Z,0.80
2022-11-17T02:00:45.471Z,0.84
2022-11-17T02:03:13.490Z,0.85
2022-11-17T02:05:46.284Z,0.86
2022-11-17T02:08:15.200Z,0.83
2022-11-17T02:10:50.219Z,0.86
2022-11-17T02:13:21.043Z,0.90
2022-11-17T02:16:13.420Z,0.92
2022-11-17T02:18:46.580Z,0.91
2022-11-17T02:21:58.893Z,0.92
2022-11-17T02:25:10.480Z,0.93
2022-11-17T02:27:59.242Z,0.95
2022-11-17T02:30:40.391Z,0.95
2022-11-17T02:33:18.624Z,0.99
2022-11-17T02:35:54.395Z,0.97
2022-11-17T02:38:21.776Z,0.99
2022-11-17T02:40:55.459Z,1.01
2022-11-17T02:43:48.117Z,1.00
2022-11-17T02:46:22.778Z,0.99
2022-11-17T02:48:58.744Z,1.00
2022-11-17T02:51:26.347Z,1.09
2022-11-17T02:53:56.674Z,1.17
2022-11-17T02:56:24.236Z,1.17
2022-11-17T02:58:56.308Z,1.24
2022-11-17T03:01:42.877Z,1.33
2022-11-17T03:04:32.216Z,1.41
2022-11-17T03:07:11.401Z,1.47
2022-11-17T03:09:49.760Z,1.52
2022-11-17T03:12:29.252Z,1.59
2022-11-17T03:15:24.476Z,1.63
2022-11-17T03:18:17.599Z,1.64
2022-11-17T03:21:04.280Z,1.68
2022-11-17T03:23:31.686Z,1.71
2022-11-17T03:26:01.341Z,1.74
2022-11-17T03:28:30.964Z,1.75
2022-11-17T03:31:00.789Z,1.78
2022-11-17T03:33:30.572Z,1.79
2022-11-17T03:36:24.678Z,1.77
2022-11-17T03:39:01.816Z,1.80
2022-11-17T03:41:36.225Z,1.83
2022-11-17T03:44:06.774Z,1.84
2022-11-17T03:46:37.255Z,1.91
2022-11-17T03:49:20.318Z,1.99
2022-11-17T03:51:47.848Z,2.06
2022-11-17T03:54:16.058Z,2.07
2022-11-17T03:57:20.059Z,2.11
2022-11-17T04:00:04.333Z,2.14
2022-11-17T04:02:44.596Z,2.18
2022-11-17T04:05:13.781Z,2.24
2022-11-17T04:07:43.764Z,2.23
2022-11-17T04:10:17.424Z,2.25
2022-11-17T04:13:04.090Z,2.27
2022-11-17T04:15:50.093Z,2.27
2022-11-17T04:18:17.611Z,2.30
2022-11-17T04:20:45.131Z,2.29
2022-11-17T04:23:14.533Z,2.29
2022-11-17T04:26:08.785Z,2.35
2022-11-17T04:28:39.168Z,2.39
2022-11-17T04:31:12.700Z,2.41
2022-11-17T04:33:46.463Z,2.44
2022-11-17T04:36:16.324Z,2.47
2022-11-17T04:38:47.100Z,2.45
2022-11-17T04:41:35.141Z,2.47
2022-11-17T04:44:04.099Z,2.49
2022-11-17T04:46:33.677Z,2.50
2022-11-17T04:49:02.199Z,2.49
2022-11-17T04:51:31.208Z,2.50
2022-11-17T04:54:00.205Z,2.61
2022-11-17T04:56:28.374Z,2.65
2022-11-17T04:58:57.464Z,2.65
2022-11-17T05:01:26.682Z,2.71
2022-11-17T05:03:55.202Z,2.74
2022-11-17T05:06:41.073Z,2.74
2022-11-17T05:09:11.407Z,2.77
2022-11-17T05:11:57.813Z,2.78
2022-11-17T05:14:27.062Z,2.80
2022-11-17T05:17:11.590Z,2.82
2022-11-17T05:19:44.537Z,2.84
2022-11-17T05:22:38.609Z,2.87
2022-11-17T05:25:06.784Z,2.93
2022-11-17T05:27:35.658Z,2.93
2022-11-17T05:30:04.658Z,3.01
2022-11-17T05:32:34.747Z,3.04
2022-11-17T05:35:03.643Z,3.11
2022-11-17T05:37:31.171Z,3.18
2022-11-17T05:39:58.625Z,3.26
2022-11-17T05:42:26.575Z,3.31
2022-11-17T05:44:54.127Z,3.40
2022-11-17T05:47:21.681Z,3.48
2022-11-17T05:49:49.411Z,3.54
2022-11-17T05:52:16.841Z,3.61
2022-11-17T05:54:44.239Z,3.62
2022-11-17T05:57:19.976Z,3.74
2022-11-17T05:59:51.743Z,3.81
2022-11-17T06:02:30.887Z,3.85
2022-11-17T06:04:58.650Z,3.91
2022-11-17T06:07:27.746Z,3.97
2022-11-17T06:09:55.410Z,4.01
2022-11-17T06:12:22.946Z,4.04
2022-11-17T06:14:50.431Z,4.05
2022-11-17T06:17:29.527Z,4.11
2022-11-17T06:20:05.370Z,4.14
2022-11-17T06:22:34.012Z,4.13
2022-11-17T06:25:05.465Z,4.17
2022-11-17T06:27:37.184Z,4.24
2022-11-17T06:30:06.199Z,4.33
2022-11-17T06:32:36.832Z,4.36
2022-11-17T06:35:08.762Z,4.42
2022-11-17T06:37:36.298Z,4.52
2022-11-17T06:40:04.563Z,4.59
2022-11-17T06:42:50.764Z,4.59
2022-11-17T06:45:19.477Z,4.72
2022-11-17T06:47:46.979Z,4.77
2022-11-17T06:50:14.807Z,4.82
2022-11-17T06:52:42.384Z,4.86
2022-11-17T06:55:10.559Z,4.90
2022-11-17T06:57:38.122Z,5.00
2022-11-17T07:00:14.617Z,5.09
2022-11-17T07:02:42.199Z,5.13
2022-11-17T07:05:10.190Z,5.19
2022-11-17T07:07:37.815Z,5.25
2022-11-17T07:10:05.672Z,5.30
2022-11-17T07:12:36.060Z,5.33
2022-11-17T07:15:03.771Z,5.30
2022-11-17T07:17:32.828Z,5.34
2022-11-17T07:20:00.470Z,5.35
2022-11-17T07:22:27.995Z,5.41
2022-11-17T07:24:55.503Z,5.37
2022-11-17T07:27:23.070Z,5.40
2022-11-17T07:29:50.543Z,5.37
2022-11-17T07:32:18.038Z,5.47
2022-11-17T07:34:45.559Z,5.50
2022-11-17T07:37:13.043Z,5.49
2022-11-17T07:39:40.839Z,5.52
2022-11-17T07:42:09.127Z,5.58
2022-11-17T07:44:36.720Z,5.63
2022-11-17T07:47:04.296Z,5.63
2022-11-17T07:49:31.845Z,5.68
2022-11-17T07:51:59.445Z,5.71
2022-11-17T07:54:26.974Z,5.74
2022-11-17T07:56:54.584Z,5.78
2022-11-17T07:59:22.119Z,5.78
2022-11-17T08:01:52.444Z,5.76
2022-11-17T08:04:20.554Z,5.80
2022-11-17T08:06:48.050Z,5.80
2022-11-17T08:09:16.531Z,5.78
2022-11-17T08:11:44.417Z,5.80
2022-11-17T08:14:13.103Z,5.82
2022-11-17T08:16:41.631Z,5.79
2022-11-17T08:19:12.505Z,5.82
2022-11-17T08:21:41.780Z,5.87
2022-11-17T08:24:09.418Z,5.92
2022-11-17T08:26:37.072Z,5.96
2022-11-17T08:29:04.787Z,6.05
2022-11-17T08:31:32.290Z,6.10
2022-11-17T08:33:59.910Z,6.17
2022-11-17T08:36:27.414Z,6.17
2022-11-17T08:38:54.937Z,6.27
2022-11-17T08:41:22.488Z,6.27
2022-11-17T08:43:52.007Z,6.27
2022-11-17T08:46:19.642Z,6.29
2022-11-17T08:48:48.957Z,6.29
2022-11-17T08:51:19.878Z,6.34
2022-11-17T08:53:47.427Z,6.42
2022-11-17T08:56:14.905Z,6.52
2022-11-17T08:58:45.609Z,6.51
2022-11-17T09:01:18.622Z,6.47
2022-11-17T09:03:50.350Z,6.60
2022-11-17T09:09:09.762Z,6.71
2022-11-17T09:11:41.790Z,6.74
2022-11-17T09:14:09.379Z,6.76
2022-11-17T09:16:37.723Z,6.78
2022-11-17T09:19:05.684Z,6.82
2022-11-17T09:21:34.246Z,6.80
2022-11-17T09:24:01.754Z,6.82
2022-11-17T09:26:29.555Z,6.87
2022-11-17T09:29:00.747Z,6.90
2022-11-17T09:31:28.290Z,6.89
2022-11-17T09:34:12.857Z,6.96
2022-11-17T09:36:40.589Z,6.98
2022-11-17T09:39:08.781Z,7.01
2022-11-17T09:41:56.714Z,6.99
2022-11-17T09:44:42.512Z,7.01
2022-11-17T09:47:31.856Z,6.99
2022-11-17T09:50:34.809Z,7.00
2022-11-17T09:53:20.919Z,6.91
2022-11-17T09:55:54.121Z,6.88
2022-11-17T09:58:35.004Z,6.91
2022-11-17T10:01:02.768Z,6.88
2022-11-17T10:03:38.761Z,6.91
2022-11-17T10:06:22.622Z,7.00
2022-11-17T10:08:58.946Z,6.97
2022-11-17T10:11:52.482Z,7.05
2022-11-17T10:14:23.644Z,7.07
2022-11-17T10:17:00.266Z,7.04
2022-11-17T10:19:31.049Z,7.02
2022-11-17T10:21:58.522Z,7.08
2022-11-17T10:25:17.168Z,7.16
2022-11-17T10:28:12.722Z,7.17
2022-11-17T10:31:15.513Z,7.20
2022-11-17T10:33:59.355Z,7.26
2022-11-17T10:37:31.790Z,7.30
2022-11-17T10:40:44.159Z,7.34
2022-11-17T10:44:03.114Z,7.38
2022-11-17T11:20:27.735Z,7.53
2022-11-17T11:36:37.326Z,7.71
2022-11-17T11:39:45.905Z,7.72
2022-11-17T11:42:46.388Z,7.70
2022-11-17T11:45:35.273Z,7.76
2022-11-17T11:48:18.824Z,7.78
2022-11-17T12:01:06.285Z,8.01
2022-11-17T12:17:02.820Z,8.07
2022-11-17T12:24:14.203Z,8.18
2022-11-17T12:36:25.515Z,8.26
2022-11-17T12:40:27.594Z,8.33
2022-11-17T12:43:20.522Z,8.40
2022-11-17T12:46:52.340Z,8.43
2022-11-17T12:50:26.007Z,8.47
2022-11-17T12:53:59.806Z,8.50
2022-11-17T12:57:38.519Z,8.55
2022-11-17T13:00:50.366Z,8.53
2022-11-17T13:04:11.834Z,8.48
2022-11-17T13:37:30.394Z,8.85
2022-11-17T13:40:38.164Z,8.85
2022-11-17T13:43:26.847Z,8.83
2022-11-17T13:45:55.490Z,8.88
2022-11-17T13:48:37.773Z,8.89
2022-11-17T13:51:20.450Z,8.93
2022-11-17T13:53:56.808Z,8.95
2022-11-17T13:56:44.168Z,9.00
2022-11-17T13:59:26.435Z,9.01
2022-11-17T14:02:15.615Z,9.03
2022-11-17T14:05:26.153Z,9.06
2022-11-17T14:07:57.160Z,9.06
2022-11-17T14:10:48.525Z,9.06
2022-11-17T14:13:28.967Z,9.07
2022-11-17T14:15:59.557Z,9.08
2022-11-17T14:18:46.966Z,9.08
2022-11-17T14:21:19.925Z,9.11
2022-11-17T14:24:02.550Z,9.13
2022-11-17T14:26:31.060Z,9.07
2022-11-17T14:29:07.757Z,9.14
2022-11-17T14:31:44.758Z,9.20
2022-11-17T14:34:12.383Z,9.21
2022-11-17T14:37:24.877Z,9.24
2022-11-17T14:39:52.368Z,9.25
2022-11-17T14:45:34.590Z,9.27
2022-11-17T14:48:03.005Z,9.31
2022-11-17T14:50:30.590Z,9.28
2022-11-17T14:52:58.582Z,9.29
2022-11-17T14:55:57.364Z,9.35
2022-11-17T14:58:25.433Z,9.37
2022-11-17T15:04:58.199Z,9.38
2022-11-17T15:08:49.149Z,9.40
2022-11-17T15:11:18.465Z,9.40
2022-11-17T15:13:45.976Z,9.44
2022-11-17T15:16:14.238Z,9.46
2022-11-17T15:18:45.939Z,9.49
2022-11-17T15:21:15.234Z,9.53
2022-11-17T15:23:43.944Z,9.55
2022-11-17T15:26:14.505Z,9.59
2022-11-17T15:28:42.342Z,9.60
2022-11-17T15:31:12.413Z,9.68
2022-11-17T15:33:41.518Z,9.64
2022-11-17T15:36:11.248Z,9.66
2022-11-17T15:38:40.453Z,9.69
2022-11-17T15:41:10.035Z,9.70
2022-11-17T15:43:39.397Z,9.70
2022-11-17T15:46:12.796Z,9.68
2022-11-17T15:48:45.050Z,9.69
2022-11-17T15:51:15.155Z,9.70
2022-11-17T15:53:44.283Z,9.70
2022-11-17T15:56:21.143Z,9.69
2022-11-17T15:58:54.155Z,9.70
2022-11-17T16:01:29.849Z,9.71
2022-11-17T16:04:03.218Z,9.73
2022-11-17T16:06:32.450Z,9.78
2022-11-17T16:09:00.397Z,9.82
2022-11-17T16:11:28.443Z,9.83
2022-11-17T16:13:57.540Z,9.85
2022-11-17T16:16:27.791Z,9.82
2022-11-17T16:18:55.626Z,9.84
2022-11-17T16:21:23.297Z,9.83
2022-11-17T16:23:54.828Z,9.80
2022-11-17T16:26:27.026Z,9.80
2022-11-17T16:29:03.024Z,9.79
2022-11-17T16:31:33.091Z,9.78
2022-11-17T16:34:03.192Z,9.78
2022-11-17T16:36:37.116Z,9.73
2022-11-17T16:39:06.889Z,9.72
2022-11-17T16:41:39.995Z,9.71
2022-11-17T16:44:09.796Z,9.69
2022-11-17T16:46:38.355Z,9.63
2022-11-17T16:49:08.304Z,9.61
2022-11-17T16:51:36.005Z,9.58
2022-11-17T16:54:06.812Z,9.57
2022-11-17T16:56:35.126Z,9.54
2022-11-17T16:59:02.591Z,9.51
2022-11-17T17:01:33.325Z,9.45
2022-11-17T17:04:04.245Z,9.49
2022-11-17T17:06:34.771Z,9.45
2022-11-17T17:09:05.380Z,9.41
2022-11-17T17:11:34.514Z,9.41
2022-11-17T17:14:04.866Z,9.43
2022-11-17T17:16:34.383Z,9.35
2022-11-17T17:19:09.401Z,9.31
2022-11-17T17:21:38.593Z,9.36
2022-11-17T17:24:06.756Z,9.34
2022-11-17T17:26:35.805Z,9.32
2022-11-17T17:29:06.144Z,9.37
2022-11-17T17:31:37.716Z,9.40
2022-11-17T17:34:06.762Z,9.44
2022-11-17T17:36:35.863Z,9.44
2022-11-17T17:39:04.139Z,9.45
2022-11-17T17:41:39.965Z,9.43
2022-11-17T17:44:08.867Z,9.41
2022-11-17T17:46:38.678Z,9.40
2022-11-17T17:49:06.984Z,9.38
2022-11-17T17:51:41.958Z,9.36
2022-11-17T17:54:16.001Z,9.39
2022-11-17T17:56:43.866Z,9.38
2022-11-17T17:59:13.851Z,9.37
2022-11-17T18:01:42.485Z,9.37
2022-11-17T18:04:15.299Z,9.37
2022-11-17T18:06:47.321Z,9.38
2022-11-17T18:09:19.508Z,9.37
2022-11-17T18:11:50.826Z,9.40
2022-11-17T18:14:24.573Z,9.41
2022-11-17T18:16:52.995Z,9.43
2022-11-17T18:19:21.032Z,9.43
2022-11-17T18:21:48.574Z,9.45
2022-11-17T18:24:16.190Z,9.43
2022-11-17T18:26:44.091Z,9.36
2022-11-17T18:29:19.600Z,9.34
2022-11-17T18:31:48.143Z,9.40
2022-11-17T18:34:21.886Z,9.38
2022-11-17T18:36:50.823Z,9.37
2022-11-17T18:39:18.816Z,9.39
2022-11-17T18:41:46.716Z,9.37
2022-11-17T18:44:15.726Z,9.34
2022-11-17T18:46:43.643Z,9.42
2022-11-17T18:49:11.452Z,9.46
2022-11-17T18:51:38.954Z,9.49
2022-11-17T18:54:09.616Z,9.49
2022-11-17T18:56:38.605Z,9.49
2022-11-17T18:59:11.938Z,9.44
2022-11-17T19:01:42.188Z,9.48
2022-11-17T19:04:11.896Z,9.40
2022-11-17T19:06:39.479Z,9.42
2022-11-17T19:09:08.479Z,9.49
2022-11-17T19:11:36.300Z,9.50
2022-11-17T19:14:07.259Z,9.53
2022-11-17T19:16:44.397Z,9.52
2022-11-17T19:19:14.039Z,9.53
2022-11-17T19:21:42.496Z,9.54
2022-11-17T19:24:35.431Z,9.59
2022-11-17T19:27:05.314Z,9.58
2022-11-17T19:29:32.788Z,9.62
2022-11-17T19:32:00.426Z,9.67
2022-11-17T19:34:27.949Z,9.72
2022-11-17T19:36:55.596Z,9.73
2022-11-17T19:39:23.120Z,9.75
2022-11-17T19:41:50.635Z,9.79
2022-11-17T19:44:18.276Z,9.77
2022-11-17T19:46:45.847Z,9.80
2022-11-17T19:49:13.510Z,9.85
2022-11-17T19:51:42.318Z,9.89
2022-11-17T19:54:12.128Z,9.99
2022-11-17T19:56:39.723Z,9.95
2022-11-17T19:59:11.012Z,9.98
2022-11-17T20:04:23.009Z,10.05
2022-11-17T20:06:52.898Z,10.04
2022-11-17T20:09:20.545Z,10.01
2022-11-17T20:11:48.097Z,10.08
2022-11-17T20:14:15.601Z,10.12
2022-11-17T20:16:43.177Z,10.13
2022-11-17T20:19:29.279Z,10.20
2022-11-17T20:21:56.758Z,10.13
2022-11-17T20:24:24.293Z,10.12
2022-11-17T20:26:51.868Z,10.11
2022-11-17T20:29:19.493Z,10.13
2022-11-17T20:31:47.116Z,10.16
2022-11-17T20:34:14.623Z,10.15
2022-11-17T20:36:42.132Z,10.15
2022-11-17T20:39:09.707Z,10.15
2022-11-17T20:41:37.264Z,10.16
2022-11-17T20:44:04.948Z,10.11
2022-11-17T20:46:32.437Z,10.08
2022-11-17T20:48:59.930Z,10.02
2022-11-17T20:51:27.384Z,9.96
2022-11-17T20:53:55.541Z,9.93
2022-11-17T20:56:23.281Z,9.80
2022-11-17T20:58:50.773Z,9.89
2022-11-17T21:01:20.688Z,9.85
2022-11-17T21:03:48.761Z,9.87
2022-11-17T21:06:16.999Z,9.82
2022-11-17T21:08:47.189Z,9.89
2022-11-17T21:11:39.203Z,9.94
2022-11-17T21:14:08.964Z,9.95
2022-11-17T21:16:42.652Z,10.07
2022-11-17T21:19:10.406Z,10.07
2022-11-17T21:21:37.914Z,10.05
2022-11-17T21:25:20.927Z,10.14
2022-11-17T21:28:13.707Z,10.12
2022-11-17T21:30:41.291Z,10.12
2022-11-17T21:33:08.788Z,10.09
2022-11-17T21:36:51.145Z,10.18
2022-11-17T21:39:43.670Z,10.25
2022-11-17T21:42:11.217Z,10.25
2022-11-17T21:49:21.441Z,10.22
2022-11-17T21:51:48.940Z,10.17
2022-11-17T21:54:16.724Z,10.21
2022-11-17T21:56:44.330Z,10.16
2022-11-17T21:59:22.622Z,10.15
2022-11-17T22:01:50.192Z,10.12
2022-11-17T22:04:19.395Z,10.18
2022-11-17T22:06:46.895Z,10.20
2022-11-17T22:09:14.709Z,10.21
2022-11-17T22:11:55.965Z,10.20
2022-11-17T22:14:23.572Z,10.23
2022-11-17T22:16:58.416Z,10.21
2022-11-17T22:19:28.669Z,10.19
2022-11-17T22:21:56.194Z,10.14
2022-11-17T22:24:23.788Z,10.12
2022-11-17T22:26:51.862Z,10.11
2022-11-17T22:29:21.464Z,10.11
2022-11-17T22:31:50.355Z,10.09
2022-11-17T22:34:18.931Z,10.13
2022-11-17T22:36:46.674Z,10.18
2022-11-17T22:39:14.305Z,10.19
2022-11-17T22:41:42.011Z,10.15
2022-11-17T22:44:14.190Z,10.16
2022-11-17T22:46:43.445Z,10.15
2022-11-17T22:49:11.154Z,10.13
2022-11-17T22:51:57.106Z,10.16
2022-11-17T22:54:24.635Z,10.14
2022-11-17T22:56:52.146Z,10.15
2022-11-17T22:59:21.395Z,10.08
2022-11-17T23:01:48.956Z,10.08
2022-11-17T23:04:16.844Z,10.02
2022-11-17T23:06:45.213Z,10.07
2022-11-17T23:09:13.054Z,10.06
2022-11-17T23:11:40.913Z,9.97
2022-11-17T23:14:11.109Z,9.97
2022-11-17T23:16:39.472Z,9.89
2022-11-17T23:19:09.722Z,9.80
2022-11-17T23:21:37.214Z,9.74
2022-11-17T23:24:10.097Z,9.70
2022-11-17T23:26:37.596Z,9.70
2022-11-17T23:29:05.365Z,9.67
2022-11-17T23:31:33.055Z,9.67
2022-11-17T23:34:00.645Z,9.69
2022-11-17T23:36:28.145Z,9.70
2022-11-17T23:38:57.879Z,9.68
2022-11-17T23:41:25.794Z,9.70
2022-11-17T23:43:54.565Z,9.69
2022-11-17T23:46:24.667Z,9.71
2022-11-17T23:48:52.433Z,9.68
2022-11-17T23:51:22.813Z,9.70
2022-11-17T23:53:50.894Z,9.75
2022-11-17T23:56:20.880Z,9.77
2022-11-17T23:59:15.185Z,9.79
